Time;durP1;ratioP1;P1;durP2;ratioP2;P2;SDS_P1;SDS_P2;PMS_P1;PMS_P2;Temp;Humidity;BMP_temperature;BMP_pressure;BME280_temperature;BME280_humidity;BME280_pressure;Samples;Min_cycle;Max_cycle;Signal;HPM_P1;HPM_P2
2023/02/07 00:01:17;;;;;;;12.05;8.73;;;;;;;-2.86;100.00;103508.84;5017452;28;20510;-79
2023/02/07 00:03:45;;;;;;;15.43;9.13;;;;;;;-2.76;100.00;103510.59;4996532;28;20050;-76
2023/02/07 00:06:17;;;;;;;14.48;9.65;;;;;;;-2.75;100.00;103507.25;5014586;28;20483;-77
2023/02/07 00:08:44;;;;;;;16.58;9.75;;;;;;;-2.77;100.00;103506.22;5009421;28;20107;-76
2023/02/07 00:11:15;;;;;;;17.63;10.20;;;;;;;-2.77;100.00;103506.22;5006888;28;20487;-78
2023/02/07 00:13:44;;;;;;;20.10;10.10;;;;;;;-2.85;100.00;103500.41;5007494;28;20054;-79
2023/02/07 00:16:11;;;;;;;12.85;7.63;;;;;;;-2.91;100.00;103485.34;5017878;28;20479;-82
2023/02/07 00:18:37;;;;;;;16.73;9.85;;;;;;;-3.00;100.00;103485.41;5000179;28;20046;-76
2023/02/07 00:21:11;;;;;;;17.17;10.25;;;;;;;-3.08;100.00;103486.34;5009763;28;20383;-77
2023/02/07 00:23:39;;;;;;;20.13;9.85;;;;;;;-3.10;100.00;103480.19;4994316;28;20627;-79
2023/02/07 00:26:07;;;;;;;17.10;10.80;;;;;;;-3.08;100.00;103480.34;4994689;28;20042;-80
2023/02/07 00:28:34;;;;;;;20.20;10.80;;;;;;;-3.09;100.00;103479.44;4977436;28;20057;-76
2023/02/07 00:31:08;;;;;;;14.13;11.02;;;;;;;-3.12;100.00;103473.13;4981823;28;20057;-78
2023/02/07 00:33:37;;;;;;;13.20;9.25;;;;;;;-3.14;100.00;103473.00;4992097;28;20042;-81
2023/02/07 00:36:06;;;;;;;14.77;9.07;;;;;;;-3.14;100.00;103478.13;4964500;28;20035;-76
2023/02/07 00:38:34;;;;;;;15.35;9.75;;;;;;;-3.16;100.00;103477.94;4991224;28;20488;-77
2023/02/07 00:41:01;;;;;;;14.85;9.40;;;;;;;-3.19;100.00;103467.44;4975361;28;20050;-77
2023/02/07 00:43:29;;;;;;;14.05;8.82;;;;;;;-3.26;100.00;103465.06;5000107;28;20039;-78
2023/02/07 00:46:01;;;;;;;17.83;9.88;;;;;;;-3.30;100.00;103469.75;4974234;28;20510;-77
2023/02/07 00:48:30;;;;;;;13.05;8.98;;;;;;;-3.34;100.00;103477.16;4984538;28;20485;-79
2023/02/07 00:50:57;;;;;;;17.20;9.52;;;;;;;-3.33;100.00;103485.75;5006880;28;20469;-77
2023/02/07 00:53:25;;;;;;;14.82;9.57;;;;;;;-3.29;100.00;103484.38;4977445;28;20492;-77
2023/02/07 00:55:51;;;;;;;17.90;10.40;;;;;;;-3.32;100.00;103478.19;4994444;28;20038;-77
2023/02/07 00:58:18;;;;;;;17.63;10.23;;;;;;;-3.38;100.00;103475.06;4979177;28;20045;-78
2023/02/07 01:00:44;;;;;;;17.40;10.18;;;;;;;-3.35;100.00;103482.13;4987260;28;20492;-76
2023/02/07 01:03:11;;;;;;;16.27;10.65;;;;;;;-3.33;100.00;103478.94;4968426;28;20050;-84
2023/02/07 01:05:37;;;;;;;19.75;10.63;;;;;;;-3.34;100.00;103474.59;4994167;28;20122;-79
2023/02/07 01:08:04;;;;;;;16.17;9.82;;;;;;;-3.28;100.00;103468.25;4985833;28;20050;-76
2023/02/07 01:10:31;;;;;;;17.60;10.55;;;;;;;-3.33;100.00;103462.69;4987793;28;20106;-76
2023/02/07 01:12:58;;;;;;;16.73;10.15;;;;;;;-3.42;100.00;103464.41;5006812;28;20042;-76
2023/02/07 01:15:24;;;;;;;16.45;10.27;;;;;;;-3.43;100.00;103453.22;4986061;28;20047;-80
2023/02/07 01:17:51;;;;;;;17.27;9.25;;;;;;;-3.46;100.00;103462.31;5000790;28;20065;-76
2023/02/07 01:20:18;;;;;;;17.52;10.13;;;;;;;-3.38;100.00;103451.13;4996014;28;20100;-77
2023/02/07 01:22:45;;;;;;;18.00;10.75;;;;;;;-3.37;100.00;103451.25;4993651;28;20055;-78
2023/02/07 01:25:11;;;;;;;22.08;11.35;;;;;;;-3.35;100.00;103446.25;4973887;28;20053;-83
2023/02/07 01:27:37;;;;;;;16.38;9.35;;;;;;;-3.34;100.00;103437.81;4990948;28;20043;-76
2023/02/07 01:30:05;;;;;;;17.08;10.23;;;;;;;-3.32;100.00;103432.09;4990844;28;20046;-77
2023/02/07 01:32:33;;;;;;;18.45;10.32;;;;;;;-3.30;100.00;103433.91;4990737;28;20046;-77
2023/02/07 01:34:59;;;;;;;15.75;9.98;;;;;;;-3.33;100.00;103411.47;5005866;28;20054;-76
2023/02/07 01:37:26;;;;;;;16.35;10.65;;;;;;;-3.40;100.00;103415.13;4979368;28;20126;-78
2023/02/07 01:39:53;;;;;;;17.88;10.20;;;;;;;-3.42;100.00;103419.19;4988190;28;20101;-77
2023/02/07 01:42:23;;;;;;;13.85;9.52;;;;;;;-3.49;100.00;103415.16;4974505;28;20043;-79
2023/02/07 01:44:49;;;;;;;16.10;9.55;;;;;;;-3.50;100.00;103410.78;4982403;28;20042;-82
2023/02/07 01:47:22;;;;;;;17.42;9.73;;;;;;;-3.55;100.00;103401.78;4978658;28;20050;-80
2023/02/07 01:49:53;;;;;;;15.63;10.35;;;;;;;-3.56;100.00;103407.69;4999206;28;20049;-77
2023/02/07 01:52:25;;;;;;;19.08;10.88;;;;;;;-3.55;100.00;103409.47;4993077;28;20046;-78
2023/02/07 01:54:57;;;;;;;17.77;10.75;;;;;;;-3.62;100.00;103413.84;4976555;28;20138;-78
2023/02/07 01:57:25;;;;;;;16.10;10.10;;;;;;;-3.63;100.00;103415.53;4973487;28;20042;-76
2023/02/07 01:59:54;;;;;;;17.13;9.88;;;;;;;-3.69;100.00;103428.66;4994341;28;20101;-82
2023/02/07 02:02:35;;;;;;;14.43;9.38;;;;;;;-3.70;100.00;103425.97;4990677;28;20042;-76
2023/02/07 02:05:01;;;;;;;18.30;10.43;;;;;;;-3.69;100.00;103427.75;4969537;28;20041;-78
2023/02/07 02:07:31;;;;;;;18.45;11.23;;;;;;;-3.73;100.00;103428.22;4992685;28;20050;-77
2023/02/07 02:09:59;;;;;;;17.63;10.88;;;;;;;-3.67;100.00;103426.25;4989324;28;20037;-79
2023/02/07 02:12:44;;;;;;;17.85;10.40;;;;;;;-3.71;100.00;103437.84;4995406;28;20141;-78
2023/02/07 02:15:33;;;;;;;20.60;10.43;;;;;;;-3.69;100.00;103432.88;4988649;28;20069;-78
2023/02/07 02:18:16;;;;;;;16.02;9.82;;;;;;;-3.67;100.00;103433.94;4991606;28;20053;-80
2023/02/07 02:21:30;;;;;;;15.07;8.70;;;;;;;-3.72;100.00;103427.47;4971024;28;20039;-79
2023/02/07 02:24:59;;;;;;;20.85;11.32;;;;;;;-3.78;100.00;103426.88;5013527;28;20053;-80
2023/02/07 02:27:46;;;;;;;17.50;10.70;;;;;;;-3.77;100.00;103424.47;4963632;28;20051;-82
2023/02/07 02:31:07;;;;;;;17.75;11.32;;;;;;;-3.81;100.00;103424.94;5028420;28;20049;-84
2023/02/07 02:34:07;;;;;;;18.23;10.20;;;;;;;-3.84;100.00;103429.78;5026273;28;20456;-78
2023/02/07 02:37:14;;;;;;;18.50;10.93;;;;;;;-3.82;100.00;103429.16;5001295;28;20068;-77
2023/02/07 02:39:50;;;;;;;24.92;11.45;;;;;;;-3.86;100.00;103438.97;4999599;28;20050;-79
2023/02/07 02:42:43;;;;;;;17.90;11.45;;;;;;;-3.84;100.00;103435.78;5011143;28;20042;-82
2023/02/07 02:45:28;;;;;;;19.15;11.05;;;;;;;-3.84;100.00;103430.66;4975215;28;20499;-78
2023/02/07 02:47:57;;;;;;;17.33;10.02;;;;;;;-3.85;100.00;103431.41;5018713;28;20088;-77
2023/02/07 02:50:27;;;;;;;22.02;11.98;;;;;;;-3.86;100.00;103428.72;4970889;28;20559;-78
2023/02/07 02:52:54;;;;;;;22.65;11.77;;;;;;;-3.86;100.00;103433.84;4990260;28;20404;-77
2023/02/07 02:55:55;;;;;;;17.48;11.02;;;;;;;-3.89;100.00;103433.56;4988754;28;20480;-76
2023/02/07 02:58:52;;;;;;;21.33;10.63;;;;;;;-3.90;100.00;103418.97;5010711;28;20125;-78
2023/02/07 03:01:49;;;;;;;18.77;11.38;;;;;;;-3.89;100.00;103425.88;5011866;28;20037;-81
2023/02/07 03:04:52;;;;;;;17.55;10.77;;;;;;;-3.94;100.00;103425.44;5001303;28;20373;-77
2023/02/07 03:07:42;;;;;;;19.85;10.60;;;;;;;-3.95;100.00;103423.66;5006776;28;20120;-78
2023/02/07 03:10:29;;;;;;;19.88;10.68;;;;;;;-3.95;100.00;103421.09;4986702;28;20487;-78
2023/02/07 03:13:09;;;;;;;16.88;11.13;;;;;;;-3.91;100.00;103418.06;4990728;28;20050;-78
2023/02/07 03:16:27;;;;;;;19.60;11.90;;;;;;;-3.89;100.00;103425.88;4983363;28;20054;-82
2023/02/07 03:19:09;;;;;;;17.05;9.68;;;;;;;-3.93;100.00;103414.44;5007748;28;20589;-76
2023/02/07 03:21:46;;;;;;;20.23;11.52;;;;;;;-3.94;100.00;103419.44;4998101;28;20050;-80
2023/02/07 03:24:19;;;;;;;18.70;10.23;;;;;;;-3.97;100.00;103424.28;4990899;28;20145;-78
2023/02/07 03:26:48;;;;;;;18.95;11.23;;;;;;;-3.96;100.00;103419.28;4997978;28;20064;-79
2023/02/07 03:29:17;;;;;;;17.25;9.70;;;;;;;-3.98;100.00;103410.56;4996551;28;20050;-76
2023/02/07 03:31:48;;;;;;;21.17;11.55;;;;;;;-4.00;100.00;103423.22;5003953;28;20044;-76
2023/02/07 03:34:22;;;;;;;21.92;12.07;;;;;;;-4.00;100.00;103410.41;4985217;28;20132;-77
2023/02/07 03:37:03;;;;;;;21.92;11.32;;;;;;;-3.97;100.00;103414.03;4989058;28;20154;-77
2023/02/07 03:39:30;;;;;;;21.40;11.23;;;;;;;-4.02;100.00;103411.91;5004967;28;20050;-76
2023/02/07 03:42:01;;;;;;;21.42;12.63;;;;;;;-4.04;100.00;103404.84;4977187;28;20057;-76
2023/02/07 03:44:31;;;;;;;19.35;10.80;;;;;;;-4.04;100.00;103402.28;4991671;28;20045;-76
2023/02/07 03:46:58;;;;;;;21.02;11.20;;;;;;;-4.07;100.00;103400.34;5004343;28;20368;-76
2023/02/07 03:49:24;;;;;;;20.80;12.15;;;;;;;-4.13;100.00;103401.41;5008566;28;20034;-76
2023/02/07 03:51:51;;;;;;;19.85;11.27;;;;;;;-4.09;100.00;103399.31;4988761;28;20500;-81
2023/02/07 03:54:18;;;;;;;14.38;10.38;;;;;;;-4.12;100.00;103396.44;5003125;28;20046;-78
2023/02/07 03:56:45;;;;;;;21.50;11.55;;;;;;;-4.14;100.00;103408.19;4979920;28;20050;-78
2023/02/07 03:59:11;;;;;;;21.98;11.65;;;;;;;-4.18;100.00;103404.44;4998639;28;20057;-80
2023/02/07 04:01:41;;;;;;;20.67;11.70;;;;;;;-4.19;100.00;103410.31;5000521;28;20411;-78
2023/02/07 04:04:09;;;;;;;24.45;12.05;;;;;;;-4.15;100.00;103408.94;4995188;28;20112;-81
2023/02/07 04:06:36;;;;;;;19.02;12.10;;;;;;;-4.20;100.00;103411.09;5009139;28;20511;-81
2023/02/07 04:09:02;;;;;;;22.13;11.75;;;;;;;-4.23;100.00;103408.22;4994682;28;20065;-76
2023/02/07 04:11:29;;;;;;;19.70;12.32;;;;;;;-4.23;100.00;103413.31;4997302;28;20046;-76
2023/02/07 04:13:56;;;;;;;19.77;12.32;;;;;;;-4.23;100.00;103409.88;4991398;28;20045;-80
2023/02/07 04:16:22;;;;;;;24.02;12.90;;;;;;;-4.25;100.00;103404.63;4987231;28;20042;-77
2023/02/07 04:18:49;;;;;;;19.50;12.15;;;;;;;-4.25;100.00;103412.31;4990555;28;20056;-81
2023/02/07 04:21:15;;;;;;;23.27;11.63;;;;;;;-4.26;100.00;103409.56;4988714;28;20121;-79
2023/02/07 04:23:41;;;;;;;21.77;12.25;;;;;;;-4.30;100.00;103413.50;4991415;28;20058;-77
2023/02/07 04:26:08;;;;;;;31.88;13.05;;;;;;;-4.28;100.00;103404.31;5010472;28;20038;-81
2023/02/07 04:28:34;;;;;;;21.38;12.43;;;;;;;-4.26;100.00;103407.00;4993849;28;20046;-78
2023/02/07 04:31:01;;;;;;;22.90;12.13;;;;;;;-4.26;100.00;103414.69;4977336;28;20104;-78
2023/02/07 04:33:27;;;;;;;25.45;12.75;;;;;;;-4.26;100.00;103412.13;4990446;28;20046;-75
2023/02/07 04:35:59;;;;;;;24.02;13.75;;;;;;;-4.18;100.00;103416.34;5002443;28;20374;-76
2023/02/07 04:38:27;;;;;;;26.92;13.77;;;;;;;-4.22;100.00;103402.34;4996274;28;20496;-77
2023/02/07 04:41:03;;;;;;;22.85;12.68;;;;;;;-4.14;100.00;103407.31;4993020;28;20092;-77
2023/02/07 04:43:34;;;;;;;22.27;13.97;;;;;;;-4.13;100.00;103406.53;4999109;28;20074;-78
2023/02/07 04:46:01;;;;;;;26.23;14.67;;;;;;;-4.11;100.00;103408.47;4996199;28;20401;-76
2023/02/07 04:48:28;;;;;;;23.92;13.45;;;;;;;-4.13;100.00;103403.97;5007405;28;20765;-78
2023/02/07 04:50:55;;;;;;;23.67;13.55;;;;;;;-4.14;100.00;103407.31;4987622;28;20046;-77
2023/02/07 04:53:21;;;;;;;20.25;13.15;;;;;;;-4.21;100.00;103403.25;4997429;28;20046;-76
2023/02/07 04:55:49;;;;;;;20.20;13.13;;;;;;;-4.28;100.00;103400.88;4997710;28;20096;-77
2023/02/07 04:58:16;;;;;;;19.25;11.88;;;;;;;-4.35;100.00;103401.94;4980888;28;20084;-77
2023/02/07 05:00:42;;;;;;;24.98;13.32;;;;;;;-4.35;100.00;103395.16;4979503;28;20051;-78
2023/02/07 05:03:09;;;;;;;26.33;14.35;;;;;;;-4.34;100.00;103399.53;4997431;28;20045;-77
2023/02/07 05:05:41;;;;;;;23.13;13.02;;;;;;;-4.35;100.00;103400.28;4999654;28;20048;-77
2023/02/07 05:08:09;;;;;;;25.67;14.80;;;;;;;-4.32;100.00;103402.22;4999269;28;20034;-76
2023/02/07 05:10:37;;;;;;;22.30;13.13;;;;;;;-4.34;100.00;103396.97;5001025;28;20053;-79
2023/02/07 05:13:04;;;;;;;23.25;13.52;;;;;;;-4.36;100.00;103398.47;5014855;28;20396;-82
2023/02/07 05:15:31;;;;;;;25.23;14.53;;;;;;;-4.38;100.00;103402.53;4982973;28;20042;-78
2023/02/07 05:17:58;;;;;;;26.10;14.60;;;;;;;-4.34;100.00;103396.97;4994898;28;20065;-78
2023/02/07 05:20:28;;;;;;;25.40;14.70;;;;;;;-4.38;100.00;103386.28;4977162;28;20045;-77
2023/02/07 05:22:55;;;;;;;25.02;14.15;;;;;;;-4.41;100.00;103388.56;4984360;28;20065;-76
2023/02/07 05:25:21;;;;;;;21.67;13.30;;;;;;;-4.43;100.00;103398.63;4991076;28;20038;-81
2023/02/07 05:27:48;;;;;;;22.75;15.45;;;;;;;-4.45;100.00;103394.13;4992250;28;20049;-76
2023/02/07 05:30:14;;;;;;;26.83;15.93;;;;;;;-4.51;100.00;103397.91;4976893;28;20045;-77
2023/02/07 05:35:25;;;;;;;25.33;13.48;;;;;;;-4.58;100.00;103400.59;5011089;28;20033;-78
2023/02/07 05:37:51;;;;;;;23.30;12.90;;;;;;;-4.59;100.00;103401.34;4996958;28;20400;-82
2023/02/07 05:40:19;;;;;;;27.20;15.07;;;;;;;-4.58;100.00;103405.72;4977085;28;20056;-79
2023/02/07 05:42:45;;;;;;;26.50;15.48;;;;;;;-4.59;100.00;103410.69;4994734;28;20498;-79
2023/02/07 05:45:12;;;;;;;25.85;14.93;;;;;;;-4.62;100.00;103411.28;5003170;28;20054;-78
2023/02/07 05:47:38;;;;;;;26.97;15.23;;;;;;;-4.66;100.00;103407.53;4989223;28;20061;-77
2023/02/07 05:50:06;;;;;;;25.23;13.95;;;;;;;-4.67;100.00;103409.94;5005348;28;20045;-77
2023/02/07 05:52:32;;;;;;;26.30;14.07;;;;;;;-4.63;100.00;103411.16;4997621;28;20041;-78
2023/02/07 05:54:59;;;;;;;27.83;13.10;;;;;;;-4.63;100.00;103409.47;5004568;28;20476;-78
2023/02/07 05:57:28;;;;;;;25.38;13.55;;;;;;;-4.63;100.00;103408.59;4994167;28;20903;-77
2023/02/07 05:59:55;;;;;;;38.97;15.70;;;;;;;-4.59;100.00;103406.47;4996360;28;20096;-77
2023/02/07 06:02:21;;;;;;;30.83;14.40;;;;;;;-4.56;100.00;103414.44;5011316;28;20037;-81
2023/02/07 06:04:48;;;;;;;25.93;14.20;;;;;;;-4.58;100.00;103409.94;4990262;28;20591;-78
2023/02/07 06:07:14;;;;;;;25.53;13.97;;;;;;;-4.58;100.00;103417.59;5011761;28;20045;-78
2023/02/07 06:09:41;;;;;;;33.53;16.40;;;;;;;-4.61;100.00;103413.09;4997991;28;20392;-76
2023/02/07 06:12:07;;;;;;;28.90;14.77;;;;;;;-4.63;100.00;103408.59;4992712;28;20501;-80
2023/02/07 06:14:34;;;;;;;28.80;15.83;;;;;;;-4.66;100.00;103411.75;4991870;28;20109;-76
2023/02/07 06:17:00;;;;;;;25.73;13.50;;;;;;;-4.67;100.00;103417.59;4989595;28;20046;-83
2023/02/07 06:19:27;;;;;;;24.10;13.70;;;;;;;-4.71;100.00;103424.06;4990765;28;20097;-78
2023/02/07 06:21:53;;;;;;;29.80;14.20;;;;;;;-4.69;100.00;103426.78;4974089;28;20042;-77
2023/02/07 06:24:21;;;;;;;30.08;15.43;;;;;;;-4.70;100.00;103422.44;4981401;28;20046;-79
2023/02/07 06:26:48;;;;;;;25.93;14.63;;;;;;;-4.68;100.00;103437.16;4995023;28;20053;-76
2023/02/07 06:29:14;;;;;;;27.53;15.60;;;;;;;-4.69;100.00;103427.69;5017233;28;20061;-78
2023/02/07 06:31:41;;;;;;;28.47;14.47;;;;;;;-4.67;100.00;103438.06;4989370;28;20037;-77
2023/02/07 06:34:07;;;;;;;31.23;16.20;;;;;;;-4.68;100.00;103441.34;5011918;28;20096;-79
2023/02/07 06:36:33;;;;;;;29.63;16.57;;;;;;;-4.71;100.00;103441.94;4992826;28;20488;-78
2023/02/07 06:39:00;;;;;;;31.23;15.17;;;;;;;-4.73;100.00;103442.56;4994586;28;20112;-77
2023/02/07 06:41:26;;;;;;;32.00;15.67;;;;;;;-4.70;100.00;103448.00;4994160;28;20041;-79
2023/02/07 06:43:53;;;;;;;25.53;14.43;;;;;;;-4.68;100.00;103460.16;5001152;28;20053;-77
2023/02/07 06:46:19;;;;;;;35.90;16.07;;;;;;;-4.67;100.00;103454.31;4977513;28;20105;-77
2023/02/07 06:48:46;;;;;;;27.43;15.30;;;;;;;-4.70;100.00;103458.22;5010256;28;20052;-81
2023/02/07 06:51:13;;;;;;;30.27;14.97;;;;;;;-4.75;100.00;103457.75;4976613;28;20046;-78
2023/02/07 06:53:40;;;;;;;35.33;17.10;;;;;;;-4.76;100.00;103455.03;4996572;28;20065;-76
2023/02/07 06:56:06;;;;;;;35.07;16.33;;;;;;;-4.73;100.00;103453.69;4991331;28;20042;-77
2023/02/07 06:58:33;;;;;;;30.80;15.33;;;;;;;-4.72;100.00;103452.94;4994690;28;20042;-77
2023/02/07 07:01:04;;;;;;;28.13;15.90;;;;;;;-4.69;100.00;103460.91;4987426;28;20122;-80
2023/02/07 07:03:31;;;;;;;27.83;14.67;;;;;;;-4.71;100.00;103464.94;5004944;28;20112;-78
2023/02/07 07:05:58;;;;;;;29.30;14.37;;;;;;;-4.72;100.00;103458.06;4986407;28;20093;-82
2023/02/07 07:08:26;;;;;;;29.40;15.27;;;;;;;-4.72;100.00;103468.28;5003141;28;20049;-83
2023/02/07 07:10:53;;;;;;;29.00;15.27;;;;;;;-4.71;100.00;103466.63;5002272;28;20065;-76
2023/02/07 07:13:20;;;;;;;26.87;15.80;;;;;;;-4.70;100.00;103473.53;4996570;28;20113;-76
2023/02/07 07:15:47;;;;;;;33.53;15.60;;;;;;;-4.75;100.00;103477.28;4983102;28;20046;-76
2023/02/07 07:18:13;;;;;;;31.23;16.57;;;;;;;-4.74;100.00;103476.56;4978356;28;20057;-79
2023/02/07 07:20:40;;;;;;;26.00;14.47;;;;;;;-4.74;100.00;103474.00;4994111;28;20049;-77
2023/02/07 07:23:06;;;;;;;27.03;16.03;;;;;;;-4.69;100.00;103468.56;4986461;28;20057;-76
2023/02/07 07:25:33;;;;;;;30.90;14.75;;;;;;;-4.68;100.00;103479.69;4995026;28;20045;-78
2023/02/07 07:27:59;;;;;;;32.73;16.60;;;;;;;-4.63;100.00;103480.16;4984681;28;20199;-79
2023/02/07 07:30:26;;;;;;;30.83;17.03;;;;;;;-4.60;100.00;103472.78;5013932;28;20503;-77
2023/02/07 07:32:52;;;;;;;30.70;16.40;;;;;;;-4.58;100.00;103478.97;4987303;28;20484;-77
2023/02/07 07:35:19;;;;;;;34.20;17.23;;;;;;;-4.51;100.00;103481.34;4982873;28;20060;-77
2023/02/07 07:37:45;;;;;;;33.27;17.17;;;;;;;-4.48;100.00;103476.56;5016930;28;20046;-79
2023/02/07 07:40:12;;;;;;;34.27;15.73;;;;;;;-4.49;100.00;103480.75;5015513;28;20060;-76
2023/02/07 07:42:38;;;;;;;31.92;17.85;;;;;;;-4.44;100.00;103485.44;5002568;28;20041;-80
2023/02/07 07:45:05;;;;;;;26.58;16.25;;;;;;;-4.41;100.00;103490.84;4993370;28;20100;-78
2023/02/07 07:47:32;;;;;;;30.23;15.70;;;;;;;-4.39;100.00;103486.78;5004823;28;20376;-77
2023/02/07 07:49:58;;;;;;;25.95;13.90;;;;;;;-4.35;100.00;103486.31;4988983;28;20068;-77
2023/02/07 07:52:25;;;;;;;22.80;13.50;;;;;;;-4.32;100.00;103487.50;5001256;28;20054;-80
2023/02/07 07:54:51;;;;;;;27.87;14.13;;;;;;;-4.30;100.00;103481.66;4990683;28;20056;-80
2023/02/07 07:57:18;;;;;;;30.40;14.43;;;;;;;-4.30;100.00;103482.56;4998365;28;20041;-77
2023/02/07 07:59:44;;;;;;;26.93;14.23;;;;;;;-4.31;100.00;103478.19;5010447;28;20068;-83
2023/02/07 08:02:14;;;;;;;24.90;14.23;;;;;;;-4.29;100.00;103478.34;5030464;28;20025;-77
2023/02/07 08:04:40;;;;;;;27.63;13.85;;;;;;;-4.25;100.00;103476.25;5006610;28;20053;-77
2023/02/07 08:07:07;;;;;;;23.20;14.00;;;;;;;-4.23;100.00;103479.84;5019158;28;20037;-76
2023/02/07 08:09:33;;;;;;;29.38;15.57;;;;;;;-4.18;100.00;103483.75;5001472;28;20060;-79
2023/02/07 08:12:00;;;;;;;24.50;12.75;;;;;;;-4.13;100.00;103478.16;4998832;28;20492;-76
2023/02/07 08:14:26;;;;;;;30.27;14.00;;;;;;;-4.09;100.00;103476.06;5020861;28;20040;-79
2023/02/07 08:16:53;;;;;;;29.45;15.55;;;;;;;-4.03;100.00;103480.84;5000165;28;20049;-77
2023/02/07 08:19:20;;;;;;;23.25;14.43;;;;;;;-3.98;100.00;103484.75;5002282;28;20404;-78
2023/02/07 08:21:46;;;;;;;24.60;14.35;;;;;;;-3.92;100.00;103485.34;4993369;28;20388;-79
2023/02/07 08:24:12;;;;;;;24.98;14.02;;;;;;;-3.84;100.00;103478.41;5022167;28;20041;-77
2023/02/07 08:26:39;;;;;;;26.23;14.48;;;;;;;-3.76;100.00;103474.91;5001317;28;20462;-80
2023/02/07 08:29:06;;;;;;;23.45;13.00;;;;;;;-3.76;100.00;103471.47;4983999;28;20389;-83
2023/02/07 08:31:32;;;;;;;23.80;13.07;;;;;;;-3.72;100.00;103471.88;5006993;28;20060;-82
2023/02/07 08:33:58;;;;;;;26.75;12.98;;;;;;;-3.63;100.00;103468.41;5001045;28;20045;-77
2023/02/07 08:36:25;;;;;;;26.38;15.77;;;;;;;-3.61;100.00;103454.06;4989998;28;20052;-79
2023/02/07 08:38:52;;;;;;;18.50;12.02;;;;;;;-3.60;100.00;103449.09;4996747;28;20042;-78
2023/02/07 08:41:19;;;;;;;23.38;12.45;;;;;;;-3.57;100.00;103457.09;4995142;28;20057;-85
2023/02/07 08:43:45;;;;;;;26.63;14.15;;;;;;;-3.57;100.00;103458.72;4993030;28;20483;-77
2023/02/07 08:46:12;;;;;;;23.25;13.00;;;;;;;-3.55;100.00;103459.78;5000662;28;20097;-79
2023/02/07 08:48:38;;;;;;;25.20;13.60;;;;;;;-3.54;100.00;103452.25;5008491;28;20041;-77
2023/02/07 08:51:07;;;;;;;25.73;12.10;;;;;;;-3.50;100.00;103454.31;5022448;28;20053;-76
2023/02/07 08:53:33;;;;;;;22.58;13.98;;;;;;;-3.43;100.00;103450.66;4998937;28;20048;-80
2023/02/07 08:56:00;;;;;;;21.65;12.32;;;;;;;-3.38;100.00;103453.69;5000163;28;20045;-79
2023/02/07 08:58:26;;;;;;;19.58;12.43;;;;;;;-3.30;100.00;103450.16;4997629;28;20045;-80
2023/02/07 09:00:53;;;;;;;26.30;12.45;;;;;;;-3.26;100.00;103448.78;5001062;28;20038;-81
2023/02/07 09:03:20;;;;;;;19.33;11.15;;;;;;;-3.23;100.00;103451.66;4976131;28;20050;-78
2023/02/07 09:05:47;;;;;;;22.98;12.55;;;;;;;-3.18;100.00;103456.44;5011036;28;20096;-77
2023/02/07 09:08:13;;;;;;;18.75;12.32;;;;;;;-3.15;100.00;103460.94;4995396;28;20152;-77
2023/02/07 09:10:40;;;;;;;17.17;10.80;;;;;;;-3.12;100.00;103468.00;5013427;28;20172;-83
2023/02/07 09:13:06;;;;;;;21.27;13.50;;;;;;;-3.04;100.00;103454.22;5012738;28;20034;-77
2023/02/07 09:15:33;;;;;;;16.90;12.75;;;;;;;-3.02;100.00;103457.84;4988400;28;20251;-79
2023/02/07 09:17:59;;;;;;;19.23;10.98;;;;;;;-2.98;100.00;103459.03;4999474;28;20129;-79
2023/02/07 09:20:27;;;;;;;16.90;11.50;;;;;;;-2.93;100.00;103447.50;4975025;28;20042;-82
2023/02/07 09:25:38;;;;;;;19.60;11.05;;;;;;;-2.74;100.00;103443.28;4982850;28;20125;-77
2023/02/07 09:28:05;;;;;;;18.42;11.75;;;;;;;-2.63;100.00;103449.41;5011090;28;20045;-79
2023/02/07 09:30:32;;;;;;;19.63;11.23;;;;;;;-2.60;100.00;103451.34;4997217;28;20034;-79
2023/02/07 09:32:58;;;;;;;15.70;10.70;;;;;;;-2.57;100.00;103452.53;4995239;28;20051;-77
2023/02/07 09:35:25;;;;;;;19.73;11.93;;;;;;;-2.46;100.00;103460.25;4994988;28;20473;-81
2023/02/07 09:37:55;;;;;;;19.23;10.80;;;;;;;-2.37;100.00;103467.13;4982744;28;20549;-79
2023/02/07 09:40:22;;;;;;;20.30;11.93;;;;;;;-2.27;100.00;103456.00;4983047;28;20046;-80
2023/02/07 09:43:07;;;;;;;20.60;11.45;;;;;;;-2.24;100.00;103455.38;4982370;28;20092;-80
2023/02/07 09:45:40;;;;;;;15.20;9.77;;;;;;;-2.19;100.00;103462.75;5009711;28;20046;-79
2023/02/07 09:48:25;;;;;;;18.70;11.02;;;;;;;-2.13;98.33;103456.34;4974384;28;20069;-77
2023/02/07 09:50:57;;;;;;;13.35;9.98;;;;;;;-2.03;97.51;103453.81;4995675;28;20070;-78
2023/02/07 09:53:35;;;;;;;13.68;9.95;;;;;;;-1.99;97.09;103453.31;4994777;28;20046;-82
2023/02/07 09:56:02;;;;;;;19.02;11.15;;;;;;;-1.93;96.27;103448.75;4996790;28;20447;-78
2023/02/07 09:58:35;;;;;;;13.60;10.70;;;;;;;-1.87;96.64;103454.38;4982194;28;20925;-80
2023/02/07 10:01:12;;;;;;;17.67;11.73;;;;;;;-1.81;95.67;103446.31;5014363;28;20050;-77
2023/02/07 10:03:53;;;;;;;12.40;9.48;;;;;;;-1.73;94.93;103454.69;4997876;28;20107;-77
2023/02/07 10:06:26;;;;;;;18.20;10.90;;;;;;;-1.73;94.82;103452.13;5013300;28;20061;-77
2023/02/07 10:09:00;;;;;;;13.45;10.23;;;;;;;-1.70;95.25;103449.81;5010608;28;20400;-77
2023/02/07 10:11:53;;;;;;;16.53;11.23;;;;;;;-1.65;94.67;103450.22;4994447;28;20040;-81
2023/02/07 10:14:42;;;;;;;14.77;9.90;;;;;;;-1.67;95.48;103453.56;4978395;28;20763;-77
2023/02/07 10:17:35;;;;;;;17.38;10.88;;;;;;;-1.58;94.91;103456.00;5011343;28;20050;-76
2023/02/07 10:20:29;;;;;;;17.48;11.32;;;;;;;-1.52;94.61;103451.38;5008417;28;20520;-76
2023/02/07 10:23:12;;;;;;;14.30;9.55;;;;;;;-1.44;93.14;103449.47;4996469;28;20129;-79
2023/02/07 10:26:12;;;;;;;15.48;10.35;;;;;;;-1.39;92.48;103448.19;4972917;28;20476;-80
2023/02/07 10:29:19;;;;;;;17.75;11.50;;;;;;;-1.39;92.99;103457.59;5007175;28;20049;-80
2023/02/07 10:31:51;;;;;;;14.82;11.35;;;;;;;-1.40;92.98;103450.66;4986578;28;20072;-78
2023/02/07 10:34:31;;;;;;;20.33;10.85;;;;;;;-1.34;92.51;103458.88;5006481;28;20038;-78
2023/02/07 10:36:58;;;;;;;14.93;8.93;;;;;;;-1.30;91.98;103460.03;4974536;28;20392;-76
2023/02/07 10:39:33;;;;;;;16.50;10.55;;;;;;;-1.30;91.70;103471.22;4991695;28;20356;-78
2023/02/07 10:41:59;;;;;;;15.32;10.43;;;;;;;-1.26;92.07;103470.72;4997151;28;20045;-76
2023/02/07 10:44:27;;;;;;;19.90;10.25;;;;;;;-1.19;90.87;103466.97;5013291;28;20096;-76
2023/02/07 10:47:03;;;;;;;18.35;11.15;;;;;;;-1.16;90.18;103477.53;5003217;28;20072;-79
2023/02/07 10:49:37;;;;;;;19.80;11.18;;;;;;;-1.12;90.41;103481.25;4990015;28;20064;-78
2023/02/07 10:52:37;;;;;;;16.33;10.00;;;;;;;-1.07;90.35;103485.09;4980903;28;20046;-76
2023/02/07 10:55:08;;;;;;;18.92;10.30;;;;;;;-0.98;87.57;103467.00;4994809;28;20510;-76
2023/02/07 10:57:34;;;;;;;16.02;9.85;;;;;;;-0.98;88.19;103467.88;4996636;28;20053;-76
2023/02/07 11:00:27;;;;;;;20.15;11.07;;;;;;;-0.95;87.73;103469.81;4979494;28;20134;-77
2023/02/07 11:03:02;;;;;;;15.52;9.50;;;;;;;-0.87;88.04;103469.69;5003479;28;20045;-76
2023/02/07 11:05:41;;;;;;;15.70;9.93;;;;;;;-0.79;87.16;103467.75;4972148;28;20050;-78
2023/02/07 11:08:31;;;;;;;15.70;9.60;;;;;;;-0.77;86.99;103462.72;4998021;28;20045;-78
2023/02/07 11:11:00;;;;;;;13.55;9.52;;;;;;;-0.71;85.68;103470.97;5010988;28;20111;-79
2023/02/07 11:13:31;;;;;;;11.88;8.68;;;;;;;-0.71;85.41;103460.66;4994159;28;20507;-76
2023/02/07 11:16:08;;;;;;;14.73;9.23;;;;;;;-0.70;85.28;103459.91;4991533;28;20515;-77
2023/02/07 11:18:56;;;;;;;17.38;10.52;;;;;;;-0.68;86.85;103454.13;4996301;28;20073;-77
2023/02/07 11:21:40;;;;;;;16.38;10.50;;;;;;;-0.59;85.12;103448.81;5000972;28;20053;-78
2023/02/07 11:24:20;;;;;;;18.63;10.65;;;;;;;-0.54;84.71;103450.06;4983421;28;20046;-79
2023/02/07 11:26:57;;;;;;;17.50;9.52;;;;;;;-0.52;83.76;103447.66;5015943;28;20042;-79
2023/02/07 11:29:25;;;;;;;16.80;9.30;;;;;;;-0.48;83.17;103439.41;5020179;28;20049;-78